Rogers, AR

5:50 PM CDT on August 04, 2015 (GMT -0500)
Stoney Point | | Change Station
CLOSE
Current Station
Personal Weather Station
Location: Rogers, AR
Elevation: 1388 ft
Nearby Weather Stations

Elev 1388 ft 36.31 °N, 94.10 °W | Updated 4 minutes ago

Overcast
Overcast
82.8 °F
Feels Like 86 °F
N
3.8
Wind Variable Wind from West

Today
High -- | Low -- °F
--% Chance of Precip.
Yesterday
High -- | Low -- °F
Precip. -- in
6:24 AM 8:18 PM
Waning Gibbous, 73% visible
Pressure 29.96 in
Visibility 10.0 miles
Clouds Mostly Cloudy 11000 ft
Heat Index 86 °F
Dew Point 68 °F
Humidity 61%
Rainfall 0.00 in
Snow Depth Not available.
UV 3 out of 12
Pollen 5.70 out of 12
Air Quality Not available.
Flu Activity Not available.
METAR KROG 042157Z 30005KT 10SM BKN110 27/21 A3000 RMK AO2 SLP145 T02720206 $

More Conditions Fewer Conditions

Pressure 29.96 in
Visibility 10.0 miles
Clouds Mostly Cloudy 11000 ft
Heat Index 86 °F
Dew Point 68 °F
Humidity 61%
Rainfall 0.00 in
Snow Depth Not available.
UV 3 out of 12
Pollen 5.70 out of 12
Air Quality Not available.
Flu Activity Not available.
METAR KROG 042157Z 30005KT 10SM BKN110 27/21 A3000 RMK AO2 SLP145 T02720206 $

More Conditions Fewer Conditions

Nowcast | as of 5:00 PM CDT on August 4, 2015

at 4:57 PM...National Weather Service Doppler radar detected very light widely scattered showers moving toward the east across eastern Oklahoma and western Arkansas. Through 7:00 PM... scattered light rain shower are expected to continue moving eastward across the area... while ending from west to east little additional rainfall is anticipated.

×

10-Day Weather Forecast

×

Almanac

Astronomy

Aug. 04, 2015 Rise Set
Actual Time
Civil Twilight
Nautical Twilight
Astronomical Twilight
Moon
Length of Visible Light
Length of Day
Tomorrow will be .
, % of the Moon is Illuminated

Today's Extremes

State Highs State Lows

Community

WunderPhotos

Upload Photos

1,844,011 photos uploaded!

WunderBlogs® & News

Nearby

Air Quality

  Air Quality AQ Index Pollutant
Not available.

Snow Depth

Station Depth Elevation

Earthquake Activity

City Distance Mag. Time & Date
Minimum magnitude displayed is 2.5.

Coastal Water Temperatures

Place Temperature

Stations

Nearby Weather Stations

Station Location Temp. Windchill Dew Point Humidity Wind Precip. Elev Updated Type